Time,TemperatureF,DewpointF,PressureIn,WindDirection,WindDirectionDegrees,WindSpeedMPH,WindSpeedGustMPH,Humidity,HourlyPrecipIn,Conditions,Clouds,dailyrainin,SolarRadiationWatts/m^2,SoftwareType,DateUTC
2013-09-23 00:04:00,37.3,35.0,30.06,NE,53,0.0,0.0,90,0.00,,,0.00,0,weatherlink.com 1.10,2013-09-23 04:04:00,
2013-09-23 00:19:00,36.9,34.0,30.06,NE,53,0.0,0.0,90,0.00,,,0.00,0,weatherlink.com 1.10,2013-09-23 04:19:00,
2013-09-23 00:34:00,36.8,34.0,30.05,NE,53,0.0,0.0,90,0.00,,,0.00,0,weatherlink.com 1.10,2013-09-23 04:34:00,
2013-09-23 00:49:00,36.8,34.0,30.05,NE,53,0.0,0.0,90,0.00,,,0.00,0,weatherlink.com 1.10,2013-09-23 04:49:00,
2013-09-23 01:04:00,37.0,34.0,30.06,NE,53,0.0,0.0,90,0.00,,,0.00,0,weatherlink.com 1.10,2013-09-23 05:04:00,
2013-09-23 01:19:00,36.8,34.0,30.06,NE,53,0.0,0.0,90,0.00,,,0.00,0,weatherlink.com 1.10,2013-09-23 05:19:00,
2013-09-23 01:34:00,37.1,35.0,30.06,NE,53,0.0,1.0,91,0.00,,,0.00,0,weatherlink.com 1.10,2013-09-23 05:34:00,
2013-09-23 01:49:00,38.2,36.0,30.06,NE,53,0.0,1.0,91,0.00,,,0.00,0,weatherlink.com 1.10,2013-09-23 05:49:00,
2013-09-23 02:04:00,38.3,36.0,30.06,NE,53,0.0,1.0,91,0.00,,,0.00,0,weatherlink.com 1.10,2013-09-23 06:04:00,
2013-09-23 02:19:00,38.1,36.0,30.06,NE,53,0.0,0.0,91,0.00,,,0.00,0,weatherlink.com 1.10,2013-09-23 06:19:00,
2013-09-23 02:34:00,37.8,36.0,30.07,NE,53,0.0,0.0,91,0.00,,,0.00,0,weatherlink.com 1.10,2013-09-23 06:34:00,
2013-09-23 02:49:00,37.6,35.0,30.07,NE,53,0.0,0.0,91,0.00,,,0.00,0,weatherlink.com 1.10,2013-09-23 06:49:00,
2013-09-23 03:04:00,37.9,36.0,30.07,NE,53,0.0,0.0,91,0.00,,,0.00,0,weatherlink.com 1.10,2013-09-23 07:04:00,
2013-09-23 03:19:00,37.9,36.0,30.07,NE,53,0.0,0.0,91,0.00,,,0.00,0,weatherlink.com 1.10,2013-09-23 07:19:00,
2013-09-23 03:34:00,37.9,36.0,30.07,NE,53,0.0,0.0,91,0.00,,,0.00,0,weatherlink.com 1.10,2013-09-23 07:34:00,
2013-09-23 03:49:00,37.7,35.0,30.07,NE,53,0.0,1.0,91,0.00,,,0.00,0,weatherlink.com 1.10,2013-09-23 07:49:00,
2013-09-23 04:04:00,37.8,36.0,30.07,NE,53,0.0,0.0,91,0.00,,,0.00,0,weatherlink.com 1.10,2013-09-23 08:04:00,
2013-09-23 04:19:00,37.3,35.0,30.07,NE,53,0.0,0.0,91,0.00,,,0.00,0,weatherlink.com 1.10,2013-09-23 08:19:00,
2013-09-23 04:34:00,36.9,35.0,30.07,NE,53,0.0,0.0,91,0.00,,,0.00,0,weatherlink.com 1.10,2013-09-23 08:34:00,
2013-09-23 04:49:00,36.7,34.0,30.07,NE,53,0.0,0.0,91,0.00,,,0.00,0,weatherlink.com 1.10,2013-09-23 08:49:00,
2013-09-23 05:04:00,36.8,35.0,30.07,NE,53,0.0,1.0,91,0.00,,,0.00,0,weatherlink.com 1.10,2013-09-23 09:04:00,
2013-09-23 05:19:00,37.3,35.0,30.07,NE,53,0.0,0.0,91,0.00,,,0.00,0,weatherlink.com 1.10,2013-09-23 09:19:00,
2013-09-23 05:34:00,37.7,36.0,30.08,NE,53,0.0,0.0,92,0.00,,,0.00,0,weatherlink.com 1.10,2013-09-23 09:34:00,
2013-09-23 05:49:00,38.0,36.0,30.08,NE,53,0.0,0.0,91,0.00,,,0.00,0,weatherlink.com 1.10,2013-09-23 09:49:00,
2013-09-23 06:04:00,37.8,36.0,30.08,NE,53,0.0,0.0,91,0.00,,,0.00,0,weatherlink.com 1.10,2013-09-23 10:04:00,
2013-09-23 06:19:00,37.3,35.0,30.08,NE,53,0.0,0.0,91,0.00,,,0.00,0,weatherlink.com 1.10,2013-09-23 10:19:00,
2013-09-23 06:34:00,37.0,35.0,30.09,NE,53,0.0,0.0,91,0.00,,,0.00,0,weatherlink.com 1.10,2013-09-23 10:34:00,
2013-09-23 06:49:00,37.5,35.0,30.09,NE,53,0.0,0.0,91,0.00,,,0.00,0,weatherlink.com 1.10,2013-09-23 10:49:00,
2013-09-23 07:04:00,37.8,36.0,30.09,NE,53,0.0,1.0,92,0.00,,,0.00,0,weatherlink.com 1.10,2013-09-23 11:04:00,
2013-09-23 07:19:00,38.1,36.0,30.09,SSE,160,0.0,3.0,91,0.00,,,0.00,0,weatherlink.com 1.10,2013-09-23 11:19:00,
2013-09-23 07:34:00,38.4,36.0,30.09,SSE,166,0.0,3.0,92,0.00,,,0.00,0,weatherlink.com 1.10,2013-09-23 11:34:00,
2013-09-23 07:49:00,38.5,36.0,30.09,South,190,0.0,4.0,92,0.00,,,0.00,7,weatherlink.com 1.10,2013-09-23 11:49:00,
2013-09-23 08:04:00,38.4,36.0,30.09,South,190,0.0,2.0,91,0.00,,,0.00,14,weatherlink.com 1.10,2013-09-23 12:04:00,
2013-09-23 08:20:00,38.5,36.0,30.10,South,190,0.0,2.0,91,0.00,,,0.00,23,weatherlink.com 1.10,2013-09-23 12:20:00,
2013-09-23 08:35:00,39.5,37.0,30.10,SSE,167,1.0,4.0,92,0.00,,,0.00,30,weatherlink.com 1.10,2013-09-23 12:35:00,
2013-09-23 08:50:00,40.5,38.0,30.10,SSE,161,1.0,2.0,92,0.00,,,0.00,35,weatherlink.com 1.10,2013-09-23 12:50:00,
2013-09-23 09:05:00,41.7,39.0,30.11,SSE,164,0.0,5.0,91,0.00,,,0.00,42,weatherlink.com 1.10,2013-09-23 13:05:00,
2013-09-23 09:20:00,43.3,41.0,30.11,South,186,0.0,3.0,90,0.00,,,0.00,46,weatherlink.com 1.10,2013-09-23 13:20:00,
2013-09-23 09:35:00,44.9,42.0,30.11,SSE,165,3.0,4.0,88,0.00,,,0.00,47,weatherlink.com 1.10,2013-09-23 13:35:00,
2013-09-23 09:50:00,46.6,43.0,30.11,SSE,156,1.0,6.0,86,0.00,,,0.00,51,weatherlink.com 1.10,2013-09-23 13:50:00,
2013-09-23 10:05:00,48.3,44.0,30.11,South,169,3.0,4.0,84,0.01,,,0.01,53,weatherlink.com 1.10,2013-09-23 14:05:00,
2013-09-23 10:20:00,50.1,45.0,30.11,South,186,0.0,6.0,82,0.01,,,0.01,54,weatherlink.com 1.10,2013-09-23 14:20:00,
2013-09-23 10:35:00,51.7,45.0,30.11,South,171,0.0,7.0,79,0.01,,,0.01,56,weatherlink.com 1.10,2013-09-23 14:35:00,
2013-09-23 10:50:00,53.2,46.0,30.11,South,183,1.0,8.0,77,0.01,,,0.01,56,weatherlink.com 1.10,2013-09-23 14:50:00,
2013-09-23 11:05:00,54.6,46.0,30.11,SSW,193,3.0,13.0,73,0.00,,,0.01,58,weatherlink.com 1.10,2013-09-23 15:05:00,
2013-09-23 11:20:00,55.7,47.0,30.11,SSE,151,4.0,9.0,72,0.00,,,0.01,60,weatherlink.com 1.10,2013-09-23 15:20:00,
2013-09-23 11:35:00,56.7,47.0,30.11,South,181,1.0,9.0,70,0.00,,,0.01,60,weatherlink.com 1.10,2013-09-23 15:35:00,
2013-09-23 11:50:00,57.5,47.0,30.10,SSE,160,2.0,11.0,69,0.00,,,0.01,88,weatherlink.com 1.10,2013-09-23 15:50:00,
2013-09-23 12:05:00,58.7,48.0,30.10,SSE,162,3.0,9.0,67,0.00,,,0.01,647,weatherlink.com 1.10,2013-09-23 16:05:00,
2013-09-23 12:21:00,58.9,47.0,30.09,SSE,159,8.0,15.0,65,0.00,,,0.01,666,weatherlink.com 1.10,2013-09-23 16:21:00,
2013-09-23 12:36:00,59.9,47.0,30.09,SSE,165,2.0,7.0,63,0.00,,,0.01,682,weatherlink.com 1.10,2013-09-23 16:36:00,
2013-09-23 12:51:00,60.2,48.0,30.09,SSW,208,1.0,9.0,65,0.00,,,0.01,696,weatherlink.com 1.10,2013-09-23 16:51:00,
2013-09-23 13:06:00,61.2,49.0,30.09,SSE,153,2.0,11.0,65,0.00,,,0.01,707,weatherlink.com 1.10,2013-09-23 17:06:00,
2013-09-23 13:21:00,61.2,48.0,30.09,SSE,157,3.0,9.0,62,0.00,,,0.01,715,weatherlink.com 1.10,2013-09-23 17:21:00,
2013-09-23 13:36:00,62.4,49.0,30.08,South,171,5.0,8.0,61,0.00,,,0.01,721,weatherlink.com 1.10,2013-09-23 17:36:00,
2013-09-23 13:51:00,62.7,48.0,30.07,SSW,205,3.0,11.0,59,0.00,,,0.01,717,weatherlink.com 1.10,2013-09-23 17:51:00,
2013-09-23 14:06:00,63.0,48.0,30.06,SSE,152,2.0,7.0,59,0.00,,,0.01,717,weatherlink.com 1.10,2013-09-23 18:06:00,
2013-09-23 14:21:00,64.4,49.0,30.05,WSW,240,2.0,8.0,58,0.00,,,0.01,707,weatherlink.com 1.10,2013-09-23 18:21:00,
2013-09-23 14:36:00,63.8,49.0,30.05,SSE,154,3.0,9.0,58,0.00,,,0.01,696,weatherlink.com 1.10,2013-09-23 18:36:00,
2013-09-23 14:51:00,64.6,49.0,30.05,SSE,161,2.0,9.0,58,0.00,,,0.01,677,weatherlink.com 1.10,2013-09-23 18:51:00,
2013-09-23 15:06:00,64.2,49.0,30.05,South,177,3.0,10.0,58,0.00,,,0.01,657,weatherlink.com 1.10,2013-09-23 19:06:00,
2013-09-23 15:21:00,64.8,50.0,30.04,SE,131,3.0,10.0,60,0.00,,,0.01,633,weatherlink.com 1.10,2013-09-23 19:21:00,
2013-09-23 15:36:00,65.4,50.0,30.04,South,187,4.0,8.0,58,0.00,,,0.01,608,weatherlink.com 1.10,2013-09-23 19:36:00,
2013-09-23 15:51:00,64.9,50.0,30.04,SSW,196,4.0,9.0,58,0.00,,,0.01,580,weatherlink.com 1.10,2013-09-23 19:51:00,
2013-09-23 16:06:00,64.5,49.0,30.03,SW,215,2.0,9.0,57,0.00,,,0.01,550,weatherlink.com 1.10,2013-09-23 20:06:00,
2013-09-23 16:21:00,64.2,49.0,30.03,South,177,3.0,11.0,58,0.00,,,0.01,517,weatherlink.com 1.10,2013-09-23 20:21:00,
2013-09-23 16:36:00,64.0,48.0,30.03,SW,217,5.0,10.0,57,0.00,,,0.01,480,weatherlink.com 1.10,2013-09-23 20:36:00,
2013-09-23 16:51:00,63.7,48.0,30.03,ESE,113,4.0,8.0,58,0.00,,,0.01,445,weatherlink.com 1.10,2013-09-23 20:51:00,
2013-09-23 17:06:00,62.6,48.0,30.03,SE,142,2.0,7.0,59,0.00,,,0.01,39,weatherlink.com 1.10,2013-09-23 21:06:00,
2013-09-23 17:21:00,62.0,48.0,30.03,South,190,3.0,10.0,60,0.00,,,0.01,33,weatherlink.com 1.10,2013-09-23 21:21:00,
2013-09-23 17:36:00,61.5,48.0,30.04,SSW,199,1.0,7.0,61,0.00,,,0.01,30,weatherlink.com 1.10,2013-09-23 21:36:00,
2013-09-23 17:51:00,60.9,49.0,30.04,ESE,119,1.0,6.0,64,0.00,,,0.01,26,weatherlink.com 1.10,2013-09-23 21:51:00,
2013-09-23 18:06:00,60.3,48.0,30.03,South,183,2.0,10.0,65,0.00,,,0.01,25,weatherlink.com 1.10,2013-09-23 22:06:00,
2013-09-23 18:21:00,59.8,48.0,30.04,SW,217,6.0,7.0,66,0.00,,,0.01,21,weatherlink.com 1.10,2013-09-23 22:21:00,
2013-09-23 18:36:00,59.3,47.0,30.03,SSE,166,2.0,10.0,65,0.00,,,0.01,18,weatherlink.com 1.10,2013-09-23 22:36:00,
2013-09-23 18:51:00,58.7,48.0,30.04,SSW,192,2.0,7.0,67,0.00,,,0.01,14,weatherlink.com 1.10,2013-09-23 22:51:00,
2013-09-23 19:06:00,57.8,48.0,30.04,SSW,202,3.0,7.0,69,0.00,,,0.01,12,weatherlink.com 1.10,2013-09-23 23:06:00,
2013-09-23 19:21:00,56.9,48.0,30.03,SW,217,1.0,8.0,71,0.00,,,0.01,9,weatherlink.com 1.10,2013-09-23 23:21:00,
2013-09-23 19:36:00,55.9,48.0,30.04,South,191,1.0,3.0,74,0.00,,,0.01,5,weatherlink.com 1.10,2013-09-23 23:36:00,
2013-09-23 19:51:00,54.8,47.0,30.04,South,181,2.0,5.0,75,0.00,,,0.01,0,weatherlink.com 1.10,2013-09-23 23:51:00,
2013-09-23 20:06:00,53.8,47.0,30.04,SSW,192,1.0,4.0,77,0.00,,,0.01,0,weatherlink.com 1.10,2013-09-24 00:06:00,
2013-09-23 20:21:00,52.9,47.0,30.04,South,183,2.0,4.0,79,0.00,,,0.01,0,weatherlink.com 1.10,2013-09-24 00:21:00,
2013-09-23 20:36:00,52.3,46.0,30.04,South,175,0.0,2.0,80,0.00,,,0.01,0,weatherlink.com 1.10,2013-09-24 00:36:00,
2013-09-23 20:51:00,51.6,46.0,30.04,SSW,198,1.0,3.0,81,0.00,,,0.01,0,weatherlink.com 1.10,2013-09-24 00:51:00,
2013-09-23 21:06:00,51.2,46.0,30.05,SSW,199,0.0,3.0,82,0.00,,,0.01,0,weatherlink.com 1.10,2013-09-24 01:06:00,
2013-09-23 21:21:00,50.7,45.0,30.05,SSW,199,0.0,2.0,82,0.00,,,0.01,0,weatherlink.com 1.10,2013-09-24 01:21:00,
2013-09-23 21:36:00,50.2,45.0,30.05,SSW,205,1.0,4.0,83,0.00,,,0.01,0,weatherlink.com 1.10,2013-09-24 01:36:00,
2013-09-23 21:51:00,50.1,46.0,30.04,SW,215,0.0,4.0,84,0.00,,,0.01,0,weatherlink.com 1.10,2013-09-24 01:51:00,
2013-09-23 22:06:00,49.8,45.0,30.04,SW,215,0.0,3.0,84,0.00,,,0.01,0,weatherlink.com 1.10,2013-09-24 02:06:00,
2013-09-23 22:21:00,49.6,45.0,30.04,SW,216,1.0,5.0,85,0.00,,,0.01,0,weatherlink.com 1.10,2013-09-24 02:21:00,
2013-09-23 22:36:00,49.4,45.0,30.04,SW,216,0.0,3.0,85,0.00,,,0.01,0,weatherlink.com 1.10,2013-09-24 02:36:00,
2013-09-23 22:51:00,49.2,45.0,30.04,SW,216,0.0,2.0,86,0.00,,,0.01,0,weatherlink.com 1.10,2013-09-24 02:51:00,
2013-09-23 23:06:00,49.0,45.0,30.04,SSW,205,1.0,4.0,86,0.00,,,0.01,0,weatherlink.com 1.10,2013-09-24 03:06:00,
2013-09-23 23:21:00,49.2,45.0,30.04,SSE,158,1.0,4.0,86,0.00,,,0.01,0,weatherlink.com 1.10,2013-09-24 03:21:00,
2013-09-23 23:36:00,49.5,45.0,30.04,South,186,2.0,4.0,85,0.00,,,0.01,0,weatherlink.com 1.10,2013-09-24 03:36:00,
2013-09-23 23:51:00,49.3,45.0,30.03,South,188,2.0,5.0,85,0.00,,,0.01,0,weatherlink.com 1.10,2013-09-24 03:51:00,